sensor_id;sensor_type;location;lat;lon;timestamp;temperature;humidity
22130;DHT22;11231;50.746;4.272;2023-11-18T00:01:20;7.50;99.90
22130;DHT22;11231;50.746;4.272;2023-11-18T00:03:46;7.50;99.90
22130;DHT22;11231;50.746;4.272;2023-11-18T00:06:12;7.60;99.90
22130;DHT22;11231;50.746;4.272;2023-11-18T00:08:38;7.60;99.90
22130;DHT22;11231;50.746;4.272;2023-11-18T00:11:04;7.70;99.90
22130;DHT22;11231;50.746;4.272;2023-11-18T00:13:30;7.70;99.90
22130;DHT22;11231;50.746;4.272;2023-11-18T00:15:56;7.80;99.90
22130;DHT22;11231;50.746;4.272;2023-11-18T00:18:23;7.70;99.90
22130;DHT22;11231;50.746;4.272;2023-11-18T00:20:49;7.60;99.90
22130;DHT22;11231;50.746;4.272;2023-11-18T00:23:17;7.60;99.90
22130;DHT22;11231;50.746;4.272;2023-11-18T00:25:43;7.50;99.90
22130;DHT22;11231;50.746;4.272;2023-11-18T00:28:11;7.50;99.90
22130;DHT22;11231;50.746;4.272;2023-11-18T00:30:38;7.50;99.90
22130;DHT22;11231;50.746;4.272;2023-11-18T00:33:05;7.60;99.90
22130;DHT22;11231;50.746;4.272;2023-11-18T00:35:30;7.60;99.90
22130;DHT22;11231;50.746;4.272;2023-11-18T00:37:58;7.60;99.90
22130;DHT22;11231;50.746;4.272;2023-11-18T00:40:25;7.50;99.90
22130;DHT22;11231;50.746;4.272;2023-11-18T00:42:51;7.50;99.90
22130;DHT22;11231;50.746;4.272;2023-11-18T00:45:17;7.50;99.90
22130;DHT22;11231;50.746;4.272;2023-11-18T00:47:43;7.60;99.90
22130;DHT22;11231;50.746;4.272;2023-11-18T00:50:09;7.70;99.90
22130;DHT22;11231;50.746;4.272;2023-11-18T00:52:35;7.70;99.90
22130;DHT22;11231;50.746;4.272;2023-11-18T00:55:05;7.80;99.90
22130;DHT22;11231;50.746;4.272;2023-11-18T00:57:32;7.90;99.90
22130;DHT22;11231;50.746;4.272;2023-11-18T00:59:58;8.00;99.90
22130;DHT22;11231;50.746;4.272;2023-11-18T01:02:24;8.10;99.90
22130;DHT22;11231;50.746;4.272;2023-11-18T01:04:49;8.20;99.90
22130;DHT22;11231;50.746;4.272;2023-11-18T01:07:16;8.40;99.90
22130;DHT22;11231;50.746;4.272;2023-11-18T01:09:42;8.40;99.90
22130;DHT22;11231;50.746;4.272;2023-11-18T01:12:08;8.60;99.90
22130;DHT22;11231;50.746;4.272;2023-11-18T01:14:38;8.70;99.90
22130;DHT22;11231;50.746;4.272;2023-11-18T01:17:08;8.60;99.90
22130;DHT22;11231;50.746;4.272;2023-11-18T01:19:37;8.60;99.90
22130;DHT22;11231;50.746;4.272;2023-11-18T01:22:03;8.60;99.90
22130;DHT22;11231;50.746;4.272;2023-11-18T01:24:32;8.70;99.90
22130;DHT22;11231;50.746;4.272;2023-11-18T01:26:58;8.80;99.90
22130;DHT22;11231;50.746;4.272;2023-11-18T01:29:25;8.80;99.90
22130;DHT22;11231;50.746;4.272;2023-11-18T01:31:51;8.90;99.90
22130;DHT22;11231;50.746;4.272;2023-11-18T01:34:21;8.70;99.90
22130;DHT22;11231;50.746;4.272;2023-11-18T01:36:48;8.50;99.90
22130;DHT22;11231;50.746;4.272;2023-11-18T01:39:16;8.40;99.90
22130;DHT22;11231;50.746;4.272;2023-11-18T01:41:43;8.30;99.90
22130;DHT22;11231;50.746;4.272;2023-11-18T01:44:10;8.30;99.90
22130;DHT22;11231;50.746;4.272;2023-11-18T01:46:36;8.20;99.90
22130;DHT22;11231;50.746;4.272;2023-11-18T01:49:03;8.20;99.90
22130;DHT22;11231;50.746;4.272;2023-11-18T01:51:29;8.20;99.90
22130;DHT22;11231;50.746;4.272;2023-11-18T01:53:57;8.20;99.90
22130;DHT22;11231;50.746;4.272;2023-11-18T01:56:25;8.10;99.90
22130;DHT22;11231;50.746;4.272;2023-11-18T01:58:52;8.00;99.90
22130;DHT22;11231;50.746;4.272;2023-11-18T02:01:19;8.10;99.90
22130;DHT22;11231;50.746;4.272;2023-11-18T02:03:44;8.20;99.90
22130;DHT22;11231;50.746;4.272;2023-11-18T02:06:10;8.20;99.90
22130;DHT22;11231;50.746;4.272;2023-11-18T02:08:38;8.20;99.90
22130;DHT22;11231;50.746;4.272;2023-11-18T02:11:28;8.20;99.90
22130;DHT22;11231;50.746;4.272;2023-11-18T02:13:58;8.40;99.90
22130;DHT22;11231;50.746;4.272;2023-11-18T02:16:28;8.30;99.90
22130;DHT22;11231;50.746;4.272;2023-11-18T02:18:55;8.30;99.90
22130;DHT22;11231;50.746;4.272;2023-11-18T02:21:21;8.30;99.90
22130;DHT22;11231;50.746;4.272;2023-11-18T02:23:49;8.40;99.90
22130;DHT22;11231;50.746;4.272;2023-11-18T02:26:22;8.30;99.90
22130;DHT22;11231;50.746;4.272;2023-11-18T02:28:48;8.30;99.90
22130;DHT22;11231;50.746;4.272;2023-11-18T02:31:22;8.30;99.90
22130;DHT22;11231;50.746;4.272;2023-11-18T02:36:36;8.20;99.90
22130;DHT22;11231;50.746;4.272;2023-11-18T02:39:08;8.20;99.90
22130;DHT22;11231;50.746;4.272;2023-11-18T02:41:38;8.10;99.90
22130;DHT22;11231;50.746;4.272;2023-11-18T02:44:05;8.10;99.90
22130;DHT22;11231;50.746;4.272;2023-11-18T02:46:36;8.10;99.90
22130;DHT22;11231;50.746;4.272;2023-11-18T02:49:03;8.10;99.90
22130;DHT22;11231;50.746;4.272;2023-11-18T02:51:29;8.20;99.90
22130;DHT22;11231;50.746;4.272;2023-11-18T02:53:57;8.10;99.90
22130;DHT22;11231;50.746;4.272;2023-11-18T02:56:23;8.10;99.90
22130;DHT22;11231;50.746;4.272;2023-11-18T02:58:49;8.10;99.90
22130;DHT22;11231;50.746;4.272;2023-11-18T03:01:14;8.00;99.90
22130;DHT22;11231;50.746;4.272;2023-11-18T03:03:40;8.10;99.90
22130;DHT22;11231;50.746;4.272;2023-11-18T03:06:08;8.10;99.90
22130;DHT22;11231;50.746;4.272;2023-11-18T03:08:34;8.10;99.90
22130;DHT22;11231;50.746;4.272;2023-11-18T03:11:00;8.10;99.90
22130;DHT22;11231;50.746;4.272;2023-11-18T03:13:26;8.10;99.90
22130;DHT22;11231;50.746;4.272;2023-11-18T03:15:51;8.20;99.90
22130;DHT22;11231;50.746;4.272;2023-11-18T03:18:17;8.40;99.90
22130;DHT22;11231;50.746;4.272;2023-11-18T03:20:43;8.50;99.90
22130;DHT22;11231;50.746;4.272;2023-11-18T03:23:09;8.50;99.90
22130;DHT22;11231;50.746;4.272;2023-11-18T03:25:35;8.60;99.90
22130;DHT22;11231;50.746;4.272;2023-11-18T03:28:01;8.60;99.90
22130;DHT22;11231;50.746;4.272;2023-11-18T03:30:27;8.70;99.90
22130;DHT22;11231;50.746;4.272;2023-11-18T03:32:54;8.70;99.90
22130;DHT22;11231;50.746;4.272;2023-11-18T03:35:20;8.70;99.90
22130;DHT22;11231;50.746;4.272;2023-11-18T03:37:46;8.70;99.90
22130;DHT22;11231;50.746;4.272;2023-11-18T03:40:13;8.80;99.90
22130;DHT22;11231;50.746;4.272;2023-11-18T03:42:39;8.80;99.90
22130;DHT22;11231;50.746;4.272;2023-11-18T03:45:06;8.60;99.90
22130;DHT22;11231;50.746;4.272;2023-11-18T03:47:32;8.60;99.90
22130;DHT22;11231;50.746;4.272;2023-11-18T03:49:59;8.60;99.90
22130;DHT22;11231;50.746;4.272;2023-11-18T03:52:25;8.60;99.90
22130;DHT22;11231;50.746;4.272;2023-11-18T03:54:51;8.60;99.90
22130;DHT22;11231;50.746;4.272;2023-11-18T03:57:17;8.60;99.90
22130;DHT22;11231;50.746;4.272;2023-11-18T03:59:42;8.70;99.90
22130;DHT22;11231;50.746;4.272;2023-11-18T04:02:08;8.70;99.90
22130;DHT22;11231;50.746;4.272;2023-11-18T04:04:37;8.80;99.90
22130;DHT22;11231;50.746;4.272;2023-11-18T04:07:03;8.90;99.90
22130;DHT22;11231;50.746;4.272;2023-11-18T04:09:30;8.90;99.90
22130;DHT22;11231;50.746;4.272;2023-11-18T04:11:57;8.90;99.90
22130;DHT22;11231;50.746;4.272;2023-11-18T04:14:24;8.90;99.90
22130;DHT22;11231;50.746;4.272;2023-11-18T04:16:51;9.00;99.90
22130;DHT22;11231;50.746;4.272;2023-11-18T04:19:17;9.00;99.90
22130;DHT22;11231;50.746;4.272;2023-11-18T04:21:43;9.00;99.90
22130;DHT22;11231;50.746;4.272;2023-11-18T04:24:13;8.90;99.90
22130;DHT22;11231;50.746;4.272;2023-11-18T04:26:40;8.80;99.90
22130;DHT22;11231;50.746;4.272;2023-11-18T04:29:06;8.80;99.90
22130;DHT22;11231;50.746;4.272;2023-11-18T04:31:32;8.80;99.90
22130;DHT22;11231;50.746;4.272;2023-11-18T04:33:59;9.00;99.90
22130;DHT22;11231;50.746;4.272;2023-11-18T04:36:25;8.90;99.90
22130;DHT22;11231;50.746;4.272;2023-11-18T04:38:52;8.90;99.90
22130;DHT22;11231;50.746;4.272;2023-11-18T04:41:18;9.00;99.90
22130;DHT22;11231;50.746;4.272;2023-11-18T04:43:43;9.00;99.90
22130;DHT22;11231;50.746;4.272;2023-11-18T04:46:09;9.00;99.90
22130;DHT22;11231;50.746;4.272;2023-11-18T04:48:36;9.00;99.90
22130;DHT22;11231;50.746;4.272;2023-11-18T04:51:02;9.00;99.90
22130;DHT22;11231;50.746;4.272;2023-11-18T04:53:28;9.00;99.90
22130;DHT22;11231;50.746;4.272;2023-11-18T04:55:53;9.10;99.90
22130;DHT22;11231;50.746;4.272;2023-11-18T04:58:19;9.10;99.90
22130;DHT22;11231;50.746;4.272;2023-11-18T05:00:45;9.00;99.90
22130;DHT22;11231;50.746;4.272;2023-11-18T05:03:11;9.00;99.90
22130;DHT22;11231;50.746;4.272;2023-11-18T05:05:39;9.00;99.90
22130;DHT22;11231;50.746;4.272;2023-11-18T05:08:20;9.00;99.90
22130;DHT22;11231;50.746;4.272;2023-11-18T05:10:47;9.10;99.90
22130;DHT22;11231;50.746;4.272;2023-11-18T05:13:13;9.10;99.90
22130;DHT22;11231;50.746;4.272;2023-11-18T05:15:45;9.20;99.90
22130;DHT22;11231;50.746;4.272;2023-11-18T05:18:12;9.20;99.90
22130;DHT22;11231;50.746;4.272;2023-11-18T05:20:43;9.20;99.90
22130;DHT22;11231;50.746;4.272;2023-11-18T05:23:09;9.10;99.90
22130;DHT22;11231;50.746;4.272;2023-11-18T05:25:36;9.20;99.90
22130;DHT22;11231;50.746;4.272;2023-11-18T05:28:02;9.20;99.90
22130;DHT22;11231;50.746;4.272;2023-11-18T05:30:29;9.20;99.90
22130;DHT22;11231;50.746;4.272;2023-11-18T05:32:57;9.30;99.90
22130;DHT22;11231;50.746;4.272;2023-11-18T05:35:24;9.40;99.90
22130;DHT22;11231;50.746;4.272;2023-11-18T05:37:54;9.40;99.90
22130;DHT22;11231;50.746;4.272;2023-11-18T05:40:20;9.30;99.90
22130;DHT22;11231;50.746;4.272;2023-11-18T05:42:46;9.30;99.90
22130;DHT22;11231;50.746;4.272;2023-11-18T05:45:14;9.40;99.90
22130;DHT22;11231;50.746;4.272;2023-11-18T05:47:56;9.50;99.90
22130;DHT22;11231;50.746;4.272;2023-11-18T05:50:23;9.40;99.90
22130;DHT22;11231;50.746;4.272;2023-11-18T05:52:53;9.30;99.90
22130;DHT22;11231;50.746;4.272;2023-11-18T05:55:19;9.40;99.90
22130;DHT22;11231;50.746;4.272;2023-11-18T05:57:45;9.40;99.90
22130;DHT22;11231;50.746;4.272;2023-11-18T06:00:14;9.40;99.90
22130;DHT22;11231;50.746;4.272;2023-11-18T06:02:41;9.40;99.90
22130;DHT22;11231;50.746;4.272;2023-11-18T06:05:08;9.40;99.90
22130;DHT22;11231;50.746;4.272;2023-11-18T06:07:34;9.50;99.90
22130;DHT22;11231;50.746;4.272;2023-11-18T06:10:01;9.50;99.90
22130;DHT22;11231;50.746;4.272;2023-11-18T06:12:31;9.50;99.90
22130;DHT22;11231;50.746;4.272;2023-11-18T06:14:57;9.50;99.90
22130;DHT22;11231;50.746;4.272;2023-11-18T06:17:23;9.60;99.90
22130;DHT22;11231;50.746;4.272;2023-11-18T06:19:49;9.60;99.90
22130;DHT22;11231;50.746;4.272;2023-11-18T06:22:15;9.70;99.90
22130;DHT22;11231;50.746;4.272;2023-11-18T06:24:41;9.70;99.90
22130;DHT22;11231;50.746;4.272;2023-11-18T06:27:06;9.70;99.90
22130;DHT22;11231;50.746;4.272;2023-11-18T06:29:34;9.80;99.90
22130;DHT22;11231;50.746;4.272;2023-11-18T06:32:00;9.80;99.90
22130;DHT22;11231;50.746;4.272;2023-11-18T06:34:26;9.70;99.90
22130;DHT22;11231;50.746;4.272;2023-11-18T06:36:53;9.60;99.90
22130;DHT22;11231;50.746;4.272;2023-11-18T06:39:19;9.50;99.90
22130;DHT22;11231;50.746;4.272;2023-11-18T06:41:47;9.60;99.90
22130;DHT22;11231;50.746;4.272;2023-11-18T06:44:17;9.60;99.90
22130;DHT22;11231;50.746;4.272;2023-11-18T06:46:49;9.60;99.90
22130;DHT22;11231;50.746;4.272;2023-11-18T06:49:16;9.70;99.90
22130;DHT22;11231;50.746;4.272;2023-11-18T06:51:42;9.60;99.90
22130;DHT22;11231;50.746;4.272;2023-11-18T06:54:08;9.60;99.90
22130;DHT22;11231;50.746;4.272;2023-11-18T06:56:36;9.70;99.90
22130;DHT22;11231;50.746;4.272;2023-11-18T06:59:06;9.60;99.90
22130;DHT22;11231;50.746;4.272;2023-11-18T07:01:35;9.70;99.90
22130;DHT22;11231;50.746;4.272;2023-11-18T07:04:01;9.70;99.90
22130;DHT22;11231;50.746;4.272;2023-11-18T07:06:27;9.70;99.90
22130;DHT22;11231;50.746;4.272;2023-11-18T07:08:54;9.70;99.90
22130;DHT22;11231;50.746;4.272;2023-11-18T07:11:25;9.70;99.90
22130;DHT22;11231;50.746;4.272;2023-11-18T07:13:51;9.80;99.90
22130;DHT22;11231;50.746;4.272;2023-11-18T07:16:23;9.80;99.90
22130;DHT22;11231;50.746;4.272;2023-11-18T07:18:49;9.80;99.90
22130;DHT22;11231;50.746;4.272;2023-11-18T07:21:14;9.70;99.90
22130;DHT22;11231;50.746;4.272;2023-11-18T07:23:40;9.60;99.90
22130;DHT22;11231;50.746;4.272;2023-11-18T07:26:07;9.60;99.90
22130;DHT22;11231;50.746;4.272;2023-11-18T07:28:35;9.60;99.90
22130;DHT22;11231;50.746;4.272;2023-11-18T07:31:01;9.70;99.90
22130;DHT22;11231;50.746;4.272;2023-11-18T07:33:31;9.60;99.90
22130;DHT22;11231;50.746;4.272;2023-11-18T07:35:58;9.50;99.90
22130;DHT22;11231;50.746;4.272;2023-11-18T07:38:24;9.50;99.90
22130;DHT22;11231;50.746;4.272;2023-11-18T07:40:50;9.40;99.90
22130;DHT22;11231;50.746;4.272;2023-11-18T07:43:18;9.40;99.90
22130;DHT22;11231;50.746;4.272;2023-11-18T07:45:47;9.40;99.90
22130;DHT22;11231;50.746;4.272;2023-11-18T07:48:16;9.50;99.90
22130;DHT22;11231;50.746;4.272;2023-11-18T07:50:44;9.50;99.90
22130;DHT22;11231;50.746;4.272;2023-11-18T07:53:10;9.50;99.90
22130;DHT22;11231;50.746;4.272;2023-11-18T07:55:37;9.40;99.90
22130;DHT22;11231;50.746;4.272;2023-11-18T07:58:09;9.40;99.90
22130;DHT22;11231;50.746;4.272;2023-11-18T08:00:39;9.30;99.90
22130;DHT22;11231;50.746;4.272;2023-11-18T08:03:09;9.30;99.90
22130;DHT22;11231;50.746;4.272;2023-11-18T08:05:41;9.30;99.90
22130;DHT22;11231;50.746;4.272;2023-11-18T08:08:12;9.30;99.90
22130;DHT22;11231;50.746;4.272;2023-11-18T08:10:39;9.30;99.90
22130;DHT22;11231;50.746;4.272;2023-11-18T08:13:06;9.30;99.90
22130;DHT22;11231;50.746;4.272;2023-11-18T08:15:40;9.30;99.90
22130;DHT22;11231;50.746;4.272;2023-11-18T08:18:06;9.20;99.90
22130;DHT22;11231;50.746;4.272;2023-11-18T08:20:33;9.20;99.90
22130;DHT22;11231;50.746;4.272;2023-11-18T08:22:58;9.10;99.90
22130;DHT22;11231;50.746;4.272;2023-11-18T08:25:24;9.00;99.90
22130;DHT22;11231;50.746;4.272;2023-11-18T08:27:51;8.90;99.90
22130;DHT22;11231;50.746;4.272;2023-11-18T08:30:17;9.00;99.90
22130;DHT22;11231;50.746;4.272;2023-11-18T08:32:45;9.00;99.90
22130;DHT22;11231;50.746;4.272;2023-11-18T08:35:12;9.00;99.90
22130;DHT22;11231;50.746;4.272;2023-11-18T08:37:42;9.00;99.90
22130;DHT22;11231;50.746;4.272;2023-11-18T08:40:08;9.10;99.90
22130;DHT22;11231;50.746;4.272;2023-11-18T08:42:48;9.10;99.90
22130;DHT22;11231;50.746;4.272;2023-11-18T08:47:45;9.10;99.90
22130;DHT22;11231;50.746;4.272;2023-11-18T08:50:18;9.10;99.90
22130;DHT22;11231;50.746;4.272;2023-11-18T08:52:45;9.10;99.90
22130;DHT22;11231;50.746;4.272;2023-11-18T08:55:14;9.10;99.90
22130;DHT22;11231;50.746;4.272;2023-11-18T08:57:47;9.20;99.90
22130;DHT22;11231;50.746;4.272;2023-11-18T09:00:30;9.30;99.90
22130;DHT22;11231;50.746;4.272;2023-11-18T09:03:16;9.40;99.90
22130;DHT22;11231;50.746;4.272;2023-11-18T09:05:47;9.50;99.90
22130;DHT22;11231;50.746;4.272;2023-11-18T09:08:28;9.40;99.90
22130;DHT22;11231;50.746;4.272;2023-11-18T09:10:58;9.30;99.90
22130;DHT22;11231;50.746;4.272;2023-11-18T09:13:26;9.30;99.90
22130;DHT22;11231;50.746;4.272;2023-11-18T09:15:58;9.30;99.90
22130;DHT22;11231;50.746;4.272;2023-11-18T09:18:26;9.40;99.90
22130;DHT22;11231;50.746;4.272;2023-11-18T09:20:56;9.40;99.90
22130;DHT22;11231;50.746;4.272;2023-11-18T09:23:25;9.30;99.90
22130;DHT22;11231;50.746;4.272;2023-11-18T09:25:53;9.30;99.90
22130;DHT22;11231;50.746;4.272;2023-11-18T09:28:20;9.40;99.90
22130;DHT22;11231;50.746;4.272;2023-11-18T09:30:46;9.40;99.90
22130;DHT22;11231;50.746;4.272;2023-11-18T09:33:20;9.40;99.90
22130;DHT22;11231;50.746;4.272;2023-11-18T09:36:06;9.40;99.90
22130;DHT22;11231;50.746;4.272;2023-11-18T09:38:39;9.40;99.90
22130;DHT22;11231;50.746;4.272;2023-11-18T09:41:10;9.40;99.90
22130;DHT22;11231;50.746;4.272;2023-11-18T09:43:40;9.40;99.90
22130;DHT22;11231;50.746;4.272;2023-11-18T09:46:17;9.40;99.90
22130;DHT22;11231;50.746;4.272;2023-11-18T09:48:52;9.50;99.90
22130;DHT22;11231;50.746;4.272;2023-11-18T09:51:22;9.50;99.90
22130;DHT22;11231;50.746;4.272;2023-11-18T09:53:55;9.40;99.90
22130;DHT22;11231;50.746;4.272;2023-11-18T09:56:40;9.40;99.90
22130;DHT22;11231;50.746;4.272;2023-11-18T09:59:22;9.50;99.90
22130;DHT22;11231;50.746;4.272;2023-11-18T10:01:56;9.40;99.90
22130;DHT22;11231;50.746;4.272;2023-11-18T10:04:24;9.40;99.90
22130;DHT22;11231;50.746;4.272;2023-11-18T10:06:53;9.40;99.90
22130;DHT22;11231;50.746;4.272;2023-11-18T10:09:20;9.40;99.90
22130;DHT22;11231;50.746;4.272;2023-11-18T10:11:55;9.40;99.90
22130;DHT22;11231;50.746;4.272;2023-11-18T10:14:29;9.40;99.90
22130;DHT22;11231;50.746;4.272;2023-11-18T10:16:55;9.50;99.90
22130;DHT22;11231;50.746;4.272;2023-11-18T10:19:21;9.40;99.90
22130;DHT22;11231;50.746;4.272;2023-11-18T10:21:47;9.30;99.90
22130;DHT22;11231;50.746;4.272;2023-11-18T10:24:14;9.40;99.90
22130;DHT22;11231;50.746;4.272;2023-11-18T10:26:56;9.50;99.90
22130;DHT22;11231;50.746;4.272;2023-11-18T10:29:24;9.50;99.90
22130;DHT22;11231;50.746;4.272;2023-11-18T10:32:05;9.40;99.90
22130;DHT22;11231;50.746;4.272;2023-11-18T10:34:42;9.40;99.90
22130;DHT22;11231;50.746;4.272;2023-11-18T10:37:09;9.50;99.90
22130;DHT22;11231;50.746;4.272;2023-11-18T10:39:36;9.50;99.90
22130;DHT22;11231;50.746;4.272;2023-11-18T10:42:03;9.60;99.90
22130;DHT22;11231;50.746;4.272;2023-11-18T10:44:29;9.60;99.90
22130;DHT22;11231;50.746;4.272;2023-11-18T10:46:55;9.70;99.90
22130;DHT22;11231;50.746;4.272;2023-11-18T10:49:28;9.70;99.90
22130;DHT22;11231;50.746;4.272;2023-11-18T10:51:55;9.70;99.90
22130;DHT22;11231;50.746;4.272;2023-11-18T10:54:22;9.70;99.90
22130;DHT22;11231;50.746;4.272;2023-11-18T10:56:49;9.60;99.90
22130;DHT22;11231;50.746;4.272;2023-11-18T10:59:15;9.60;99.90
22130;DHT22;11231;50.746;4.272;2023-11-18T11:01:45;9.60;99.90
22130;DHT22;11231;50.746;4.272;2023-11-18T11:04:14;9.70;99.90
22130;DHT22;11231;50.746;4.272;2023-11-18T11:06:47;9.70;99.90
22130;DHT22;11231;50.746;4.272;2023-11-18T11:09:23;9.70;99.90
22130;DHT22;11231;50.746;4.272;2023-11-18T11:12:04;9.70;99.90
22130;DHT22;11231;50.746;4.272;2023-11-18T11:14:39;9.70;99.90
22130;DHT22;11231;50.746;4.272;2023-11-18T11:17:13;9.70;99.90
22130;DHT22;11231;50.746;4.272;2023-11-18T11:19:50;9.60;99.90
22130;DHT22;11231;50.746;4.272;2023-11-18T11:22:33;9.60;99.90
22130;DHT22;11231;50.746;4.272;2023-11-18T11:25:11;9.60;99.90
22130;DHT22;11231;50.746;4.272;2023-11-18T11:30:29;9.80;99.90
22130;DHT22;11231;50.746;4.272;2023-11-18T11:33:16;9.90;99.90
22130;DHT22;11231;50.746;4.272;2023-11-18T11:35:48;9.90;99.90
22130;DHT22;11231;50.746;4.272;2023-11-18T11:38:15;9.80;99.90
22130;DHT22;11231;50.746;4.272;2023-11-18T11:40:42;9.90;99.90
22130;DHT22;11231;50.746;4.272;2023-11-18T11:43:10;9.90;99.90
22130;DHT22;11231;50.746;4.272;2023-11-18T11:45:37;10.00;99.90
22130;DHT22;11231;50.746;4.272;2023-11-18T11:48:06;10.00;99.90
22130;DHT22;11231;50.746;4.272;2023-11-18T11:53:44;10.00;99.90
22130;DHT22;11231;50.746;4.272;2023-11-18T11:56:11;10.00;99.90
22130;DHT22;11231;50.746;4.272;2023-11-18T11:58:41;10.00;99.90
22130;DHT22;11231;50.746;4.272;2023-11-18T12:01:25;10.00;99.90
22130;DHT22;11231;50.746;4.272;2023-11-18T12:03:59;10.00;99.90
22130;DHT22;11231;50.746;4.272;2023-11-18T12:06:32;10.10;99.90
22130;DHT22;11231;50.746;4.272;2023-11-18T12:08:57;10.10;99.90
22130;DHT22;11231;50.746;4.272;2023-11-18T12:11:24;10.10;99.90
22130;DHT22;11231;50.746;4.272;2023-11-18T12:14:05;10.10;99.90
22130;DHT22;11231;50.746;4.272;2023-11-18T12:19:47;10.00;99.90
22130;DHT22;11231;50.746;4.272;2023-11-18T12:22:14;10.00;99.90
22130;DHT22;11231;50.746;4.272;2023-11-18T12:27:45;10.00;99.90
22130;DHT22;11231;50.746;4.272;2023-11-18T12:33:02;10.20;99.90
22130;DHT22;11231;50.746;4.272;2023-11-18T12:41:35;10.30;99.90
22130;DHT22;11231;50.746;4.272;2023-11-18T12:49:37;10.40;99.90
22130;DHT22;11231;50.746;4.272;2023-11-18T12:52:11;10.50;99.90
22130;DHT22;11231;50.746;4.272;2023-11-18T12:54:40;10.40;99.90
22130;DHT22;11231;50.746;4.272;2023-11-18T12:57:10;10.40;99.90
22130;DHT22;11231;50.746;4.272;2023-11-18T12:59:39;10.40;99.90
22130;DHT22;11231;50.746;4.272;2023-11-18T13:02:09;10.50;99.90
22130;DHT22;11231;50.746;4.272;2023-11-18T13:04:40;10.30;99.90
22130;DHT22;11231;50.746;4.272;2023-11-18T13:07:06;10.30;99.90
22130;DHT22;11231;50.746;4.272;2023-11-18T13:09:37;10.20;99.90
22130;DHT22;11231;50.746;4.272;2023-11-18T13:12:04;10.20;99.90
22130;DHT22;11231;50.746;4.272;2023-11-18T13:14:33;10.20;99.90
22130;DHT22;11231;50.746;4.272;2023-11-18T13:17:08;10.20;99.90
22130;DHT22;11231;50.746;4.272;2023-11-18T13:19:34;10.20;99.90
22130;DHT22;11231;50.746;4.272;2023-11-18T13:22:01;10.20;99.90
22130;DHT22;11231;50.746;4.272;2023-11-18T13:24:27;10.20;99.90
22130;DHT22;11231;50.746;4.272;2023-11-18T13:26:57;10.20;99.90
22130;DHT22;11231;50.746;4.272;2023-11-18T13:29:23;10.30;99.90
22130;DHT22;11231;50.746;4.272;2023-11-18T13:31:50;10.30;99.90
22130;DHT22;11231;50.746;4.272;2023-11-18T13:34:19;10.30;99.90
22130;DHT22;11231;50.746;4.272;2023-11-18T13:36:47;10.40;99.90
22130;DHT22;11231;50.746;4.272;2023-11-18T13:39:19;10.40;99.90
22130;DHT22;11231;50.746;4.272;2023-11-18T13:41:51;10.40;99.90
22130;DHT22;11231;50.746;4.272;2023-11-18T13:44:35;10.40;99.90
22130;DHT22;11231;50.746;4.272;2023-11-18T13:47:06;10.50;99.90
22130;DHT22;11231;50.746;4.272;2023-11-18T13:49:37;10.50;99.90
22130;DHT22;11231;50.746;4.272;2023-11-18T13:52:08;10.50;99.90
22130;DHT22;11231;50.746;4.272;2023-11-18T13:54:37;10.60;99.90
22130;DHT22;11231;50.746;4.272;2023-11-18T13:57:04;10.50;99.90
22130;DHT22;11231;50.746;4.272;2023-11-18T13:59:30;10.60;99.90
22130;DHT22;11231;50.746;4.272;2023-11-18T14:01:58;10.60;99.90
22130;DHT22;11231;50.746;4.272;2023-11-18T14:04:27;10.70;99.90
22130;DHT22;11231;50.746;4.272;2023-11-18T14:06:57;10.70;99.90
22130;DHT22;11231;50.746;4.272;2023-11-18T14:09:23;10.70;99.90
22130;DHT22;11231;50.746;4.272;2023-11-18T14:11:55;10.70;99.90
22130;DHT22;11231;50.746;4.272;2023-11-18T14:14:24;10.70;99.90
22130;DHT22;11231;50.746;4.272;2023-11-18T14:16:51;10.70;99.90
22130;DHT22;11231;50.746;4.272;2023-11-18T14:19:19;10.70;99.90
22130;DHT22;11231;50.746;4.272;2023-11-18T14:21:45;10.70;99.90
22130;DHT22;11231;50.746;4.272;2023-11-18T14:24:11;10.80;99.90
22130;DHT22;11231;50.746;4.272;2023-11-18T14:26:40;10.80;99.90
22130;DHT22;11231;50.746;4.272;2023-11-18T14:29:07;10.80;99.90
22130;DHT22;11231;50.746;4.272;2023-11-18T14:31:33;10.80;99.90
22130;DHT22;11231;50.746;4.272;2023-11-18T14:34:03;10.80;99.90
22130;DHT22;11231;50.746;4.272;2023-11-18T14:36:29;10.80;99.90
22130;DHT22;11231;50.746;4.272;2023-11-18T14:38:55;10.80;99.90
22130;DHT22;11231;50.746;4.272;2023-11-18T14:41:21;10.80;99.90
22130;DHT22;11231;50.746;4.272;2023-11-18T14:43:54;10.80;99.90
22130;DHT22;11231;50.746;4.272;2023-11-18T14:46:20;10.80;99.90
22130;DHT22;11231;50.746;4.272;2023-11-18T14:48:45;10.80;99.90
22130;DHT22;11231;50.746;4.272;2023-11-18T14:51:12;10.80;99.90
22130;DHT22;11231;50.746;4.272;2023-11-18T14:53:38;10.80;99.90
22130;DHT22;11231;50.746;4.272;2023-11-18T14:56:04;10.80;99.90
22130;DHT22;11231;50.746;4.272;2023-11-18T14:58:32;10.90;99.90
22130;DHT22;11231;50.746;4.272;2023-11-18T15:00:58;11.00;99.90
22130;DHT22;11231;50.746;4.272;2023-11-18T15:03:25;11.10;99.90
22130;DHT22;11231;50.746;4.272;2023-11-18T15:05:51;11.20;99.90
22130;DHT22;11231;50.746;4.272;2023-11-18T15:08:17;11.10;99.90
22130;DHT22;11231;50.746;4.272;2023-11-18T15:10:43;11.10;99.90
22130;DHT22;11231;50.746;4.272;2023-11-18T15:13:10;11.00;99.90
22130;DHT22;11231;50.746;4.272;2023-11-18T15:15:41;10.90;99.90
22130;DHT22;11231;50.746;4.272;2023-11-18T15:18:07;11.00;99.90
22130;DHT22;11231;50.746;4.272;2023-11-18T15:20:48;11.10;99.90
22130;DHT22;11231;50.746;4.272;2023-11-18T15:23:16;11.10;99.90
22130;DHT22;11231;50.746;4.272;2023-11-18T15:25:42;11.10;99.90
22130;DHT22;11231;50.746;4.272;2023-11-18T15:28:08;11.20;99.90
22130;DHT22;11231;50.746;4.272;2023-11-18T15:30:38;11.30;99.90
22130;DHT22;11231;50.746;4.272;2023-11-18T15:33:05;11.30;99.90
22130;DHT22;11231;50.746;4.272;2023-11-18T15:35:34;11.30;99.90
22130;DHT22;11231;50.746;4.272;2023-11-18T15:38:03;11.30;99.90
22130;DHT22;11231;50.746;4.272;2023-11-18T15:40:31;11.40;99.90
22130;DHT22;11231;50.746;4.272;2023-11-18T15:42:56;11.40;99.90
22130;DHT22;11231;50.746;4.272;2023-11-18T15:45:23;11.50;99.90
22130;DHT22;11231;50.746;4.272;2023-11-18T15:47:55;11.60;99.90
22130;DHT22;11231;50.746;4.272;2023-11-18T15:50:21;11.60;99.90
22130;DHT22;11231;50.746;4.272;2023-11-18T15:52:48;11.60;99.90
22130;DHT22;11231;50.746;4.272;2023-11-18T15:55:15;11.70;99.90
22130;DHT22;11231;50.746;4.272;2023-11-18T15:57:41;11.70;99.90
22130;DHT22;11231;50.746;4.272;2023-11-18T16:00:09;11.60;99.90
22130;DHT22;11231;50.746;4.272;2023-11-18T16:02:46;11.70;99.90
22130;DHT22;11231;50.746;4.272;2023-11-18T16:05:13;11.70;99.90
22130;DHT22;11231;50.746;4.272;2023-11-18T16:07:49;11.80;99.90
22130;DHT22;11231;50.746;4.272;2023-11-18T16:10:16;11.90;99.90
22130;DHT22;11231;50.746;4.272;2023-11-18T16:12:58;11.80;99.90
22130;DHT22;11231;50.746;4.272;2023-11-18T16:15:25;11.80;99.90
22130;DHT22;11231;50.746;4.272;2023-11-18T16:17:52;11.80;99.90
22130;DHT22;11231;50.746;4.272;2023-11-18T16:20:19;11.90;99.90
22130;DHT22;11231;50.746;4.272;2023-11-18T16:22:47;11.90;99.90